createdAt,value
2018-06-08T00:00:35.312Z,10.07
2018-06-08T00:03:03.757Z,9.43
2018-06-08T00:05:32.196Z,10.30
2018-06-08T00:08:00.621Z,10.53
2018-06-08T00:10:28.747Z,10.20
2018-06-08T00:12:57.166Z,8.80
2018-06-08T00:15:25.604Z,9.87
2018-06-08T00:17:54.040Z,10.73
2018-06-08T00:20:22.464Z,9.80
2018-06-08T00:22:50.899Z,10.87
2018-06-08T00:25:19.327Z,11.43
2018-06-08T00:27:47.763Z,10.17
2018-06-08T00:30:16.179Z,11.00
2018-06-08T00:32:44.622Z,9.67
2018-06-08T00:35:13.047Z,10.40
2018-06-08T00:37:41.487Z,10.10
2018-06-08T00:40:09.907Z,10.67
2018-06-08T00:42:38.345Z,9.07
2018-06-08T00:45:06.805Z,9.63
2018-06-08T00:47:35.260Z,9.83
2018-06-08T00:50:03.744Z,10.77
2018-06-08T00:52:32.179Z,9.40
2018-06-08T00:55:06.950Z,10.13
2018-06-08T00:57:35.388Z,10.53
2018-06-08T01:00:03.955Z,9.83
2018-06-08T01:02:32.389Z,10.37
2018-06-08T01:05:00.820Z,9.17
2018-06-08T01:07:29.266Z,10.90
2018-06-08T01:09:57.799Z,10.17
2018-06-08T01:12:26.236Z,10.77
2018-06-08T01:14:54.685Z,10.87
2018-06-08T01:17:23.107Z,9.13
2018-06-08T01:19:52.393Z,10.53
2018-06-08T01:22:20.831Z,9.60
2018-06-08T01:24:49.291Z,10.93
2018-06-08T01:27:17.708Z,10.20
2018-06-08T01:29:46.153Z,10.20
2018-06-08T01:32:14.575Z,10.60
2018-06-08T01:34:43.015Z,10.57
2018-06-08T01:37:11.441Z,11.03
2018-06-08T01:39:39.892Z,10.73
2018-06-08T01:42:08.320Z,10.37
2018-06-08T01:44:36.772Z,10.40
2018-06-08T01:47:05.528Z,9.83
2018-06-08T01:49:33.944Z,10.80
2018-06-08T01:52:02.396Z,10.77
2018-06-08T01:54:30.812Z,10.60
2018-06-08T01:56:59.267Z,10.00
2018-06-08T01:59:27.728Z,11.90
2018-06-08T02:01:56.172Z,10.50
2018-06-08T02:04:24.603Z,11.30
2018-06-08T02:06:53.383Z,10.20
2018-06-08T02:09:21.817Z,9.73
2018-06-08T02:11:50.283Z,9.83
2018-06-08T02:14:18.699Z,10.97
2018-06-08T02:16:47.174Z,10.27
2018-06-08T02:19:15.617Z,11.97
2018-06-08T02:21:44.056Z,9.83
2018-06-08T02:24:12.489Z,10.40
2018-06-08T02:26:41.003Z,9.40
2018-06-08T02:29:09.425Z,10.00
2018-06-08T02:31:37.879Z,10.33
2018-06-08T02:34:06.323Z,9.70
2018-06-08T02:36:34.740Z,9.93
2018-06-08T02:39:03.268Z,9.13
2018-06-08T02:41:31.700Z,9.87
2018-06-08T02:44:00.140Z,9.70
2018-06-08T02:46:28.556Z,10.43
2018-06-08T02:48:57.007Z,10.63
2018-06-08T02:51:25.429Z,9.73
2018-06-08T02:53:53.864Z,9.80
2018-06-08T02:56:22.288Z,9.37
2018-06-08T02:58:50.728Z,10.93
2018-06-08T03:01:19.169Z,10.30
2018-06-08T03:03:47.600Z,10.27
2018-06-08T03:06:16.022Z,10.00
2018-06-08T03:08:44.452Z,9.80
2018-06-08T03:11:12.869Z,10.90
2018-06-08T03:13:41.300Z,11.20
2018-06-08T03:16:09.731Z,9.70
2018-06-08T03:18:38.177Z,9.97
2018-06-08T03:21:06.712Z,10.93
2018-06-08T03:23:35.123Z,10.13
2018-06-08T03:26:03.271Z,9.00
2018-06-08T03:28:31.720Z,11.30
2018-06-08T03:31:00.156Z,11.67
2018-06-08T03:33:28.576Z,9.63
2018-06-08T03:35:57.048Z,10.07
2018-06-08T03:38:25.471Z,9.93
2018-06-08T03:40:53.916Z,8.37
2018-06-08T03:43:22.347Z,9.07
2018-06-08T03:45:50.793Z,10.30
2018-06-08T03:48:19.208Z,8.73
2018-06-08T03:50:47.648Z,11.20
2018-06-08T03:53:16.084Z,11.10
2018-06-08T03:55:44.535Z,11.10
2018-06-08T03:58:12.914Z,10.20
2018-06-08T04:00:41.331Z,10.30
2018-06-08T04:03:09.704Z,12.10
2018-06-08T04:05:38.113Z,11.80
2018-06-08T04:08:06.512Z,10.80
2018-06-08T04:10:34.904Z,11.40
2018-06-08T04:13:03.311Z,12.20
2018-06-08T04:15:31.696Z,11.57
2018-06-08T04:18:00.093Z,10.50
2018-06-08T04:20:28.472Z,10.80
2018-06-08T04:22:56.876Z,11.23
2018-06-08T04:25:25.252Z,10.90
2018-06-08T04:27:53.646Z,9.97
2018-06-08T04:30:22.027Z,11.30
2018-06-08T04:32:50.447Z,11.77
2018-06-08T04:35:18.847Z,11.03
2018-06-08T04:37:47.256Z,12.10
2018-06-08T04:40:15.643Z,10.27
2018-06-08T04:42:43.764Z,12.07
2018-06-08T04:45:12.144Z,13.63
2018-06-08T04:47:40.553Z,12.10
2018-06-08T04:50:08.952Z,10.90
2018-06-08T04:52:37.356Z,11.80
2018-06-08T04:55:05.739Z,10.90
2018-06-08T04:57:34.138Z,11.07
2018-06-08T05:00:02.545Z,12.00
2018-06-08T05:02:30.915Z,12.40
2018-06-08T05:04:59.316Z,11.67
2018-06-08T05:07:27.694Z,12.07
2018-06-08T05:09:56.104Z,13.10
2018-06-08T05:12:24.484Z,11.23
2018-06-08T05:14:52.885Z,11.37
2018-06-08T05:17:21.264Z,11.70
2018-06-08T05:19:49.676Z,12.00
2018-06-08T05:22:18.069Z,12.13
2018-06-08T05:24:49.493Z,11.30
2018-06-08T05:27:17.867Z,12.30
2018-06-08T05:29:46.270Z,12.27
2018-06-08T05:32:14.649Z,14.13
2018-06-08T05:34:43.048Z,11.47
2018-06-08T05:37:11.427Z,11.20
2018-06-08T05:39:39.827Z,12.30
2018-06-08T05:42:08.232Z,12.00
2018-06-08T05:44:43.326Z,9.37
2018-06-08T05:47:11.707Z,12.50
2018-06-08T05:49:40.109Z,11.27
2018-06-08T05:52:08.489Z,10.00
2018-06-08T05:54:36.906Z,9.90
2018-06-08T05:57:05.443Z,9.40
2018-06-08T05:59:33.868Z,10.43
2018-06-08T06:02:02.258Z,9.90
2018-06-08T06:04:31.017Z,10.20
2018-06-08T06:06:59.416Z,10.20
2018-06-08T06:09:28.155Z,9.93
2018-06-08T06:11:57.125Z,10.00
2018-06-08T06:14:25.600Z,11.03
2018-06-08T06:16:54.011Z,10.60
2018-06-08T06:19:22.391Z,9.90
2018-06-08T06:21:50.803Z,10.20
2018-06-08T06:24:19.183Z,10.20
2018-06-08T06:26:48.046Z,9.20
2018-06-08T06:29:16.792Z,9.70
2018-06-08T06:31:45.196Z,9.50
2018-06-08T06:34:13.977Z,9.53
2018-06-08T06:36:42.378Z,10.40
2018-06-08T06:39:11.342Z,9.63
2018-06-08T06:41:39.715Z,10.47
2018-06-08T06:44:08.304Z,10.27
2018-06-08T06:46:36.975Z,11.50
2018-06-08T06:49:05.397Z,8.10
2018-06-08T06:51:33.620Z,10.73
2018-06-08T06:54:02.320Z,8.83
2018-06-08T06:56:31.286Z,8.47
2018-06-08T06:59:00.072Z,9.40
2018-06-08T07:01:28.899Z,9.57
2018-06-08T07:03:57.323Z,9.63
2018-06-08T07:06:25.703Z,8.80
2018-06-08T07:08:53.812Z,9.63
2018-06-08T07:11:22.177Z,8.60
2018-06-08T07:13:50.576Z,8.80
2018-06-08T07:16:18.960Z,8.37
2018-06-08T07:18:47.414Z,7.33
2018-06-08T07:21:15.761Z,7.50
2018-06-08T07:23:44.207Z,7.47
2018-06-08T07:26:12.576Z,7.93
2018-06-08T07:28:40.979Z,8.47
2018-06-08T07:31:09.356Z,9.83
2018-06-08T07:33:37.775Z,8.10
2018-06-08T07:36:06.161Z,7.50
2018-06-08T07:38:34.588Z,8.20
2018-06-08T07:41:02.983Z,8.97
2018-06-08T07:43:31.383Z,8.00
2018-06-08T07:45:59.760Z,8.27
2018-06-08T07:48:28.191Z,9.30
2018-06-08T07:50:56.564Z,8.03
2018-06-08T07:53:24.964Z,8.67
2018-06-08T07:55:53.392Z,7.13
2018-06-08T07:58:21.855Z,9.30
2018-06-08T08:00:50.258Z,7.67
2018-06-08T08:03:18.635Z,8.97
2018-06-08T08:05:47.047Z,8.03
2018-06-08T08:08:15.424Z,9.60
2018-06-08T08:10:43.828Z,8.37
2018-06-08T08:13:12.209Z,9.17
2018-06-08T08:15:40.613Z,7.97
2018-06-08T08:18:08.989Z,8.20
2018-06-08T08:20:37.392Z,9.40
2018-06-08T08:23:05.766Z,8.97
2018-06-08T08:25:34.157Z,9.20
2018-06-08T08:28:02.540Z,8.50
2018-06-08T08:30:30.945Z,9.20
2018-06-08T08:32:59.330Z,9.37
2018-06-08T08:35:27.742Z,9.53
2018-06-08T08:37:56.120Z,6.97
2018-06-08T08:40:24.500Z,8.43
2018-06-08T08:42:52.896Z,8.23
2018-06-08T08:45:21.363Z,9.00
2018-06-08T08:47:49.793Z,8.90
2018-06-08T08:50:18.236Z,7.90
2018-06-08T08:52:46.628Z,7.80
2018-06-08T08:55:15.009Z,9.17
2018-06-08T08:57:43.407Z,10.20
2018-06-08T09:00:11.824Z,10.03
2018-06-08T09:02:40.241Z,9.90
2018-06-08T09:05:08.629Z,10.20
2018-06-08T09:07:37.024Z,8.73
2018-06-08T09:10:05.650Z,10.20
2018-06-08T09:12:34.857Z,9.80
2018-06-08T09:15:03.698Z,9.10
2018-06-08T09:17:32.115Z,10.37
2018-06-08T09:20:00.488Z,9.90
2018-06-08T09:22:29.223Z,8.70
2018-06-08T09:24:57.635Z,7.70
2018-06-08T09:27:26.091Z,9.40
2018-06-08T09:29:54.465Z,8.80
2018-06-08T09:32:22.851Z,7.37
2018-06-08T09:34:51.244Z,9.07
2018-06-08T09:37:19.632Z,9.83
2018-06-08T09:39:48.027Z,8.50
2018-06-08T09:42:16.420Z,9.20
2018-06-08T09:44:44.844Z,9.13
2018-06-08T09:47:13.232Z,9.70
2018-06-08T09:49:41.832Z,10.30
2018-06-08T09:52:10.250Z,8.67
2018-06-08T09:54:38.646Z,9.20
2018-06-08T09:59:40.772Z,9.13
2018-06-08T10:02:09.147Z,8.60
2018-06-08T10:07:12.264Z,9.97
2018-06-08T10:09:40.662Z,10.90
2018-06-08T10:12:09.043Z,9.17
2018-06-08T10:14:37.460Z,10.30
2018-06-08T10:17:05.861Z,9.60
2018-06-08T10:19:34.239Z,9.03
2018-06-08T10:22:02.654Z,8.50
2018-06-08T10:24:31.028Z,9.90
2018-06-08T10:26:59.134Z,9.80
2018-06-08T10:29:27.506Z,9.17
2018-06-08T10:31:55.899Z,9.63
2018-06-08T10:34:24.288Z,9.30
2018-06-08T10:36:59.406Z,9.10
2018-06-08T10:39:27.805Z,9.80
2018-06-08T10:41:56.201Z,8.20
2018-06-08T10:44:24.636Z,9.47
2018-06-08T10:46:53.037Z,9.43
2018-06-08T10:49:21.420Z,8.50
2018-06-08T10:51:50.633Z,9.80
2018-06-08T10:54:19.079Z,10.27
2018-06-08T10:56:47.484Z,9.77
2018-06-08T10:59:15.883Z,7.77
2018-06-08T11:01:44.291Z,10.20
2018-06-08T11:04:12.711Z,9.10
2018-06-08T11:06:41.345Z,8.80
2018-06-08T11:09:09.746Z,9.10
2018-06-08T11:11:38.140Z,9.20
2018-06-08T11:14:06.551Z,9.40
2018-06-08T11:16:34.947Z,8.30
2018-06-08T11:19:03.355Z,8.63
2018-06-08T11:21:31.798Z,9.20
2018-06-08T11:23:59.884Z,8.10
2018-06-08T11:26:28.260Z,8.57
2018-06-08T11:28:56.824Z,8.77
2018-06-08T11:31:25.212Z,8.43
2018-06-08T11:33:53.612Z,8.10
2018-06-08T11:36:22.397Z,8.13
2018-06-08T11:38:50.812Z,8.73
2018-06-08T11:41:19.184Z,9.00
2018-06-08T11:43:47.584Z,8.57
2018-06-08T11:46:15.953Z,8.47
2018-06-08T11:48:44.350Z,9.13
2018-06-08T11:51:12.752Z,8.77
2018-06-08T11:53:40.862Z,9.80
2018-06-08T11:56:09.257Z,8.13
2018-06-08T11:58:37.637Z,8.10
2018-06-08T12:01:06.068Z,10.00
2018-06-08T12:03:34.440Z,8.60
2018-06-08T12:06:02.847Z,10.37
2018-06-08T12:08:31.248Z,10.23
2018-06-08T12:10:59.647Z,8.73
2018-06-08T12:13:28.044Z,7.73
2018-06-08T12:15:56.446Z,9.80
2018-06-08T12:18:24.820Z,8.40
2018-06-08T12:20:53.212Z,8.30
2018-06-08T12:23:21.584Z,8.53
2018-06-08T12:25:49.975Z,8.80
2018-06-08T12:28:18.355Z,8.07
2018-06-08T12:30:46.768Z,7.57
2018-06-08T12:33:15.253Z,7.80
2018-06-08T12:35:43.648Z,8.97
2018-06-08T12:38:12.024Z,8.13
2018-06-08T12:40:40.419Z,8.40
2018-06-08T12:43:08.804Z,9.60
2018-06-08T12:45:37.215Z,8.77
2018-06-08T12:48:05.598Z,9.13
2018-06-08T12:50:34.023Z,8.00
2018-06-08T12:53:02.404Z,7.97
2018-06-08T12:55:30.788Z,8.40
2018-06-08T12:57:59.200Z,8.27
2018-06-08T13:00:27.605Z,8.43
2018-06-08T13:02:55.993Z,7.83
2018-06-08T13:05:24.363Z,8.00
2018-06-08T13:07:52.754Z,8.43
2018-06-08T13:10:21.163Z,8.47
2018-06-08T13:12:49.568Z,9.00
2018-06-08T13:15:18.005Z,8.63
2018-06-08T13:17:46.410Z,9.03
2018-06-08T13:20:14.831Z,9.90
2018-06-08T13:22:43.227Z,8.30
2018-06-08T13:25:11.616Z,9.20
2018-06-08T13:27:40.013Z,9.20
2018-06-08T13:30:08.395Z,8.37
2018-06-08T13:32:36.789Z,8.80
2018-06-08T13:35:04.928Z,9.37
2018-06-08T13:37:33.347Z,9.00
2018-06-08T13:40:01.732Z,10.53
2018-06-08T13:42:30.129Z,13.97
2018-06-08T13:44:58.526Z,9.80
2018-06-08T13:47:26.949Z,8.37
2018-06-08T13:49:55.356Z,8.03
2018-06-08T13:52:23.735Z,7.97
2018-06-08T13:54:52.136Z,9.53
2018-06-08T13:57:20.528Z,10.83
2018-06-08T13:59:48.959Z,10.60
2018-06-08T14:02:17.346Z,11.23
2018-06-08T14:04:45.762Z,10.97
2018-06-08T14:07:14.137Z,10.43
2018-06-08T14:09:42.535Z,9.57
2018-06-08T14:12:10.924Z,9.37
2018-06-08T14:14:39.321Z,8.73
2018-06-08T14:17:07.723Z,8.93
2018-06-08T14:19:36.134Z,7.97
2018-06-08T14:22:04.530Z,9.03
2018-06-08T14:24:32.911Z,9.13
2018-06-08T14:27:01.324Z,11.33
2018-06-08T14:29:30.091Z,8.87
2018-06-08T14:31:58.501Z,8.90
2018-06-08T14:34:26.889Z,9.20
2018-06-08T14:36:55.307Z,8.20
2018-06-08T14:39:23.707Z,8.87
2018-06-08T14:41:52.105Z,8.77
2018-06-08T14:44:20.480Z,8.33
2018-06-08T14:46:48.875Z,9.53
2018-06-08T14:49:17.263Z,8.93
2018-06-08T14:51:45.652Z,7.33
2018-06-08T14:54:14.029Z,8.50
2018-06-08T14:56:42.431Z,8.17
2018-06-08T14:59:10.822Z,6.57
2018-06-08T15:01:39.275Z,8.40
2018-06-08T15:04:07.651Z,7.33
2018-06-08T15:06:36.072Z,8.30
2018-06-08T15:09:05.999Z,8.97
2018-06-08T15:11:34.372Z,7.63
2018-06-08T15:14:02.783Z,7.83
2018-06-08T15:16:31.159Z,8.10
2018-06-08T15:18:59.556Z,9.83
2018-06-08T15:21:27.940Z,8.57
2018-06-08T15:23:56.336Z,7.97
2018-06-08T15:26:24.724Z,8.37
2018-06-08T15:28:53.119Z,8.33
2018-06-08T15:31:21.505Z,7.83
2018-06-08T15:33:49.912Z,9.60
2018-06-08T15:36:18.291Z,8.97
2018-06-08T15:38:46.691Z,8.80
2018-06-08T15:41:15.069Z,9.90
2018-06-08T15:43:43.451Z,9.10
2018-06-08T15:46:11.827Z,9.60
2018-06-08T15:48:40.222Z,10.50
2018-06-08T15:51:08.708Z,10.40
2018-06-08T15:53:37.123Z,10.10
2018-06-08T15:56:05.560Z,10.00
2018-06-08T15:58:33.963Z,9.10
2018-06-08T16:01:02.357Z,10.93
2018-06-08T16:03:30.745Z,10.80
2018-06-08T16:05:59.144Z,9.70
2018-06-08T16:08:27.524Z,10.83
2018-06-08T16:10:55.928Z,10.47
2018-06-08T16:13:24.309Z,10.20
2018-06-08T16:15:52.715Z,11.60
2018-06-08T16:18:21.096Z,9.87
2018-06-08T16:20:49.500Z,10.70
2018-06-08T16:23:17.880Z,10.50
2018-06-08T16:25:46.280Z,11.20
2018-06-08T16:28:21.166Z,11.57
2018-06-08T16:30:49.564Z,10.60
2018-06-08T16:33:17.939Z,11.67
2018-06-08T16:35:46.380Z,12.73
2018-06-08T16:38:14.787Z,10.90
2018-06-08T16:40:42.893Z,11.30
2018-06-08T16:43:11.268Z,10.63
2018-06-08T16:45:39.676Z,11.13
2018-06-08T16:48:08.051Z,11.17
2018-06-08T16:50:36.448Z,9.63
2018-06-08T16:53:04.831Z,10.63
2018-06-08T16:55:33.235Z,11.17
2018-06-08T16:58:01.622Z,10.27
2018-06-08T17:00:30.040Z,11.83
2018-06-08T17:02:58.423Z,11.93
2018-06-08T17:05:26.855Z,12.07
2018-06-08T17:07:55.237Z,10.83
2018-06-08T17:10:23.623Z,11.77
2018-06-08T17:12:52.031Z,10.80
2018-06-08T17:15:20.404Z,11.73
2018-06-08T17:17:48.831Z,11.70
2018-06-08T17:20:17.225Z,12.20
2018-06-08T17:22:45.639Z,11.60
2018-06-08T17:25:14.017Z,12.30
2018-06-08T17:27:45.388Z,11.77
2018-06-08T17:30:13.783Z,11.47
2018-06-08T17:32:42.178Z,12.50
2018-06-08T17:35:10.572Z,12.23
2018-06-08T17:37:38.980Z,12.50
2018-06-08T17:40:07.392Z,12.00
2018-06-08T17:42:35.787Z,14.20
2018-06-08T17:45:04.522Z,14.00
2018-06-08T17:47:32.926Z,12.30
2018-06-08T17:50:01.300Z,13.10
2018-06-08T17:52:29.716Z,12.00
2018-06-08T17:54:58.107Z,12.63
2018-06-08T17:57:26.492Z,12.43
2018-06-08T17:59:54.915Z,12.87
2018-06-08T18:02:23.304Z,12.77
2018-06-08T18:04:51.709Z,14.30
2018-06-08T18:07:20.099Z,13.17
2018-06-08T18:09:48.205Z,12.70
2018-06-08T18:12:16.599Z,13.97
2018-06-08T18:14:45.006Z,13.40
2018-06-08T18:17:13.401Z,13.57
2018-06-08T18:19:41.807Z,13.30
2018-06-08T18:22:10.220Z,14.03
2018-06-08T18:24:38.624Z,13.00
2018-06-08T18:27:07.059Z,13.30
2018-06-08T18:29:35.167Z,14.70
2018-06-08T18:32:03.622Z,12.23
2018-06-08T18:34:32.937Z,13.20
2018-06-08T18:37:01.336Z,12.03
2018-06-08T18:39:30.112Z,14.13
2018-06-08T18:41:58.496Z,13.03
2018-06-08T18:44:26.907Z,15.10
2018-06-08T18:46:55.289Z,12.13
2018-06-08T18:49:23.683Z,12.90
2018-06-08T18:51:52.077Z,12.90
2018-06-08T18:54:20.499Z,13.20
2018-06-08T18:56:48.885Z,14.07
2018-06-08T18:59:17.288Z,13.30
2018-06-08T19:01:45.713Z,12.57
2018-06-08T19:04:14.120Z,12.13
2018-06-08T19:06:42.540Z,12.83
2018-06-08T19:09:10.923Z,12.10
2018-06-08T19:11:39.365Z,12.30
2018-06-08T19:14:07.767Z,14.30
2018-06-08T19:16:36.167Z,11.07
2018-06-08T19:19:04.544Z,13.10
2018-06-08T19:21:32.954Z,12.97
2018-06-08T19:24:01.370Z,12.53
2018-06-08T19:26:29.767Z,11.93
2018-06-08T19:28:58.190Z,12.63
2018-06-08T19:31:26.606Z,12.83
2018-06-08T19:33:55.016Z,12.27
2018-06-08T19:36:23.460Z,12.27
2018-06-08T19:38:54.062Z,13.10
2018-06-08T19:41:23.349Z,13.50
2018-06-08T19:43:52.001Z,14.00
2018-06-08T19:46:21.196Z,11.40
2018-06-08T19:48:50.122Z,11.67
2018-06-08T19:51:22.534Z,11.73
2018-06-08T19:53:51.962Z,12.90
2018-06-08T19:56:20.441Z,12.53
2018-06-08T19:58:48.856Z,12.10
2018-06-08T20:01:19.511Z,12.40
2018-06-08T20:03:48.075Z,12.23
2018-06-08T20:06:16.450Z,12.03
2018-06-08T20:08:45.795Z,12.20
2018-06-08T20:11:15.702Z,11.13
2018-06-08T20:13:44.743Z,11.30
2018-06-08T20:16:13.938Z,11.10
2018-06-08T20:18:43.038Z,12.13
2018-06-08T20:21:12.587Z,11.10
2018-06-08T20:23:41.058Z,10.50
2018-06-08T20:26:10.901Z,10.63
2018-06-08T20:28:39.699Z,9.60
2018-06-08T20:31:09.768Z,9.93
2018-06-08T20:33:39.730Z,11.90
2018-06-08T20:36:09.466Z,11.70
2018-06-08T20:38:37.969Z,9.70
2018-06-08T20:41:08.063Z,10.80
2018-06-08T20:43:37.304Z,10.63
2018-06-08T20:46:05.923Z,9.87
2018-06-08T20:48:34.839Z,11.10
2018-06-08T20:51:04.561Z,11.90
2018-06-08T20:53:33.056Z,10.73
2018-06-08T20:56:03.416Z,10.97
2018-06-08T20:58:32.083Z,10.50
2018-06-08T21:01:00.405Z,10.50
2018-06-08T21:03:28.792Z,11.10
2018-06-08T21:05:57.184Z,8.90
2018-06-08T21:08:25.581Z,10.73
2018-06-08T21:10:53.979Z,9.73
2018-06-08T21:13:22.370Z,9.13
2018-06-08T21:15:50.792Z,10.07
2018-06-08T21:18:19.168Z,10.60
2018-06-08T21:20:47.579Z,10.23
2018-06-08T21:23:15.963Z,8.70
2018-06-08T21:25:44.372Z,10.03
2018-06-08T21:28:12.764Z,10.13
2018-06-08T21:30:41.173Z,9.43
2018-06-08T21:33:09.261Z,10.50
2018-06-08T21:35:37.656Z,9.77
2018-06-08T21:38:06.040Z,9.77
2018-06-08T21:40:34.435Z,9.00
2018-06-08T21:43:02.812Z,9.20
2018-06-08T21:45:31.212Z,9.70
2018-06-08T21:47:59.587Z,9.37
2018-06-08T21:50:27.995Z,10.47
2018-06-08T21:52:56.398Z,9.50
2018-06-08T21:55:24.812Z,9.37
2018-06-08T21:57:56.249Z,8.73
2018-06-08T22:00:25.303Z,9.20
2018-06-08T22:02:54.374Z,9.13
2018-06-08T22:05:22.767Z,9.10
2018-06-08T22:07:51.187Z,10.33
2018-06-08T22:10:19.612Z,9.20
2018-06-08T22:12:48.016Z,10.70
2018-06-08T22:15:16.395Z,9.00
2018-06-08T22:17:44.800Z,8.67
2018-06-08T22:20:13.196Z,8.57
2018-06-08T22:22:41.579Z,8.13
2018-06-08T22:25:09.976Z,8.17
2018-06-08T22:27:38.368Z,8.57
2018-06-08T22:30:06.751Z,8.17
2018-06-08T22:32:35.147Z,8.10
2018-06-08T22:35:03.571Z,8.10
2018-06-08T22:37:31.934Z,8.37
2018-06-08T22:40:00.319Z,8.30
2018-06-08T22:42:28.787Z,8.23
2018-06-08T22:44:57.192Z,8.87
2018-06-08T22:47:25.575Z,9.40
2018-06-08T22:49:53.980Z,9.00
2018-06-08T22:52:22.376Z,8.60
2018-06-08T22:54:50.778Z,9.70
2018-06-08T22:57:19.157Z,9.67
2018-06-08T22:59:47.581Z,8.93
2018-06-08T23:02:15.672Z,9.50
2018-06-08T23:04:44.171Z,9.90
2018-06-08T23:07:12.546Z,9.50
2018-06-08T23:09:40.932Z,10.20
2018-06-08T23:12:09.308Z,8.10
2018-06-08T23:14:37.721Z,8.50
2018-06-08T23:17:06.433Z,9.13
2018-06-08T23:19:34.813Z,9.40
2018-06-08T23:22:03.186Z,9.13
2018-06-08T23:24:31.606Z,9.83
2018-06-08T23:26:59.984Z,8.97
2018-06-08T23:29:28.360Z,9.00
2018-06-08T23:31:56.829Z,8.90
2018-06-08T23:34:25.211Z,9.40
2018-06-08T23:36:53.346Z,9.47
2018-06-08T23:39:21.721Z,9.00
2018-06-08T23:41:50.111Z,8.83
2018-06-08T23:44:18.484Z,8.43
2018-06-08T23:46:46.938Z,8.73
2018-06-08T23:49:15.318Z,9.40
2018-06-08T23:51:43.731Z,8.70
2018-06-08T23:54:12.106Z,8.50
2018-06-08T23:56:40.503Z,9.13
2018-06-08T23:59:08.876Z,9.20
